Time;durP1;ratioP1;P1;durP2;ratioP2;P2;SDS_P1;SDS_P2;PMS_P1;PMS_P2;Temp;Humidity;BMP_temperature;BMP_pressure;BME280_temperature;BME280_humidity;BME280_pressure;Samples;Min_cycle;Max_cycle;Signal;HPM_P1;HPM_P2
2022/08/07 00:00:23;;;;;;;0.82;0.43;;;27.10;62.60;;;;;;5032958;28;20471;-24
2022/08/07 00:02:49;;;;;;;1.77;0.57;;;27.10;62.60;;;;;;5032975;28;20036;-25
2022/08/07 00:05:14;;;;;;;1.05;0.50;;;27.10;62.50;;;;;;5032675;28;20486;-24
2022/08/07 00:07:40;;;;;;;0.90;0.40;;;27.10;62.40;;;;;;5032913;28;20036;-24
2022/08/07 00:10:06;;;;;;;1.05;0.60;;;27.10;62.50;;;;;;5032847;28;20030;-24
2022/08/07 00:12:32;;;;;;;3.00;0.60;;;27.10;62.50;;;;;;5032779;28;20036;-24
2022/08/07 00:14:57;;;;;;;1.10;0.50;;;27.10;62.30;;;;;;5033018;28;20026;-24
2022/08/07 00:17:23;;;;;;;2.55;0.50;;;27.10;62.50;;;;;;5014819;28;20479;-24
2022/08/07 00:19:49;;;;;;;1.30;0.50;;;27.10;62.50;;;;;;5032851;28;20021;-24
2022/08/07 00:22:15;;;;;;;1.27;0.50;;;27.10;62.40;;;;;;5014731;28;20111;-24
2022/08/07 00:24:41;;;;;;;0.55;0.38;;;27.00;62.30;;;;;;5032479;28;20028;-24
2022/08/07 00:27:07;;;;;;;0.68;0.40;;;27.10;62.40;;;;;;5032174;28;20029;-24
2022/08/07 00:29:33;;;;;;;1.02;0.40;;;27.00;62.30;;;;;;5032438;28;20052;-24
2022/08/07 00:31:58;;;;;;;0.80;0.40;;;27.00;62.20;;;;;;5032495;28;20061;-24
2022/08/07 00:34:27;;;;;;;0.80;0.50;;;27.00;62.20;;;;;;5032297;28;20482;-24
2022/08/07 00:36:53;;;;;;;1.80;0.65;;;27.00;62.20;;;;;;5031572;28;20040;-24
2022/08/07 00:39:19;;;;;;;3.28;0.45;;;27.00;62.20;;;;;;5032191;28;20445;-23
2022/08/07 00:41:56;;;;;;;1.52;0.47;;;27.00;62.30;;;;;;5032342;28;20083;-25
2022/08/07 00:44:22;;;;;;;0.70;0.50;;;27.00;62.10;;;;;;5032488;28;20436;-25
2022/08/07 00:46:49;;;;;;;3.00;0.57;;;27.00;62.20;;;;;;5031797;28;20095;-24
2022/08/07 00:49:15;;;;;;;3.22;0.55;;;26.90;62.10;;;;;;5032017;28;20118;-24
2022/08/07 00:51:41;;;;;;;1.42;0.38;;;26.90;62.00;;;;;;5032129;28;20057;-24
2022/08/07 00:54:07;;;;;;;2.50;0.65;;;26.90;62.00;;;;;;5031876;28;20028;-24
2022/08/07 00:56:33;;;;;;;1.20;0.50;;;26.90;62.80;;;;;;5031882;28;20060;-25
2022/08/07 00:59:00;;;;;;;0.75;0.25;;;26.90;62.10;;;;;;5031765;28;20056;-25
2022/08/07 01:01:26;;;;;;;0.85;0.40;;;26.90;62.00;;;;;;5031959;28;20521;-24
2022/08/07 01:03:52;;;;;;;0.77;0.40;;;26.90;62.00;;;;;;5032051;28;20061;-24
2022/08/07 01:06:18;;;;;;;1.02;0.40;;;26.90;61.90;;;;;;5031797;28;20104;-25
2022/08/07 01:08:45;;;;;;;1.10;0.40;;;26.90;61.90;;;;;;5031615;28;20030;-24
2022/08/07 01:11:12;;;;;;;1.45;0.40;;;26.90;62.00;;;;;;5032181;28;20052;-25
2022/08/07 01:13:39;;;;;;;1.10;0.40;;;26.90;62.00;;;;;;5014320;28;20025;-24
2022/08/07 01:16:06;;;;;;;2.47;0.52;;;26.90;61.90;;;;;;5032027;28;20386;-24
2022/08/07 01:18:33;;;;;;;0.50;0.38;;;26.90;62.00;;;;;;5013981;28;20029;-25
2022/08/07 01:21:05;;;;;;;0.68;0.40;;;26.80;61.80;;;;;;5031871;28;20022;-24
2022/08/07 01:23:32;;;;;;;1.98;0.70;;;26.80;62.60;;;;;;5032077;28;20030;-24
2022/08/07 01:25:58;;;;;;;0.90;0.43;;;26.80;61.80;;;;;;5031912;28;20104;-24
2022/08/07 01:28:24;;;;;;;1.00;0.47;;;26.80;61.80;;;;;;5031642;28;20036;-24
2022/08/07 01:30:51;;;;;;;3.88;0.50;;;26.80;61.80;;;;;;5031925;28;20021;-24
2022/08/07 01:33:20;;;;;;;1.10;0.40;;;26.80;61.70;;;;;;5031753;28;20038;-25
2022/08/07 01:35:45;;;;;;;0.85;0.50;;;26.80;61.90;;;;;;5031547;28;20026;-25
2022/08/07 01:38:11;;;;;;;1.63;0.60;;;26.80;61.70;;;;;;5013531;28;20036;-24
2022/08/07 01:40:38;;;;;;;1.23;0.57;;;26.80;61.70;;;;;;5031658;28;20041;-25
2022/08/07 01:43:05;;;;;;;1.17;0.50;;;26.80;61.70;;;;;;5031806;28;20410;-24
2022/08/07 01:45:32;;;;;;;2.33;0.50;;;26.70;61.60;;;;;;5013901;28;20108;-24
2022/08/07 01:47:58;;;;;;;1.15;0.52;;;26.70;61.60;;;;;;5031348;28;20496;-25
2022/08/07 01:50:26;;;;;;;0.88;0.30;;;26.70;61.70;;;;;;5017373;28;20080;-24
2022/08/07 01:52:55;;;;;;;0.57;0.40;;;26.70;61.60;;;;;;5035203;28;20029;-24
2022/08/07 01:55:27;;;;;;;1.38;0.50;;;26.70;61.70;;;;;;5035064;28;20072;-24
2022/08/07 01:57:56;;;;;;;1.40;0.50;;;26.70;61.60;;;;;;5034907;28;20103;-24
2022/08/07 02:00:25;;;;;;;1.90;0.60;;;26.70;61.60;;;;;;5035051;28;20047;-24
2022/08/07 02:03:01;;;;;;;1.00;0.40;;;26.70;61.50;;;;;;5035741;28;20036;-24
2022/08/07 02:05:33;;;;;;;4.65;0.60;;;26.60;61.40;;;;;;5035059;28;20032;-24
2022/08/07 02:08:06;;;;;;;0.77;0.50;;;26.70;61.50;;;;;;5034739;28;20037;-24
2022/08/07 02:10:35;;;;;;;1.00;0.60;;;26.60;61.40;;;;;;5035255;28;20088;-24
2022/08/07 02:13:02;;;;;;;0.93;0.47;;;26.60;61.40;;;;;;5034789;28;20030;-24
2022/08/07 02:15:29;;;;;;;1.52;0.40;;;26.60;61.40;;;;;;5034925;28;20127;-24
2022/08/07 02:17:56;;;;;;;1.15;0.50;;;26.60;61.40;;;;;;5034574;28;20061;-24
2022/08/07 02:20:23;;;;;;;1.20;0.60;;;26.60;61.40;;;;;;5034966;28;20112;-24
2022/08/07 02:22:52;;;;;;;0.57;0.30;;;26.60;61.40;;;;;;5035348;28;20059;-24
2022/08/07 02:25:19;;;;;;;2.25;0.47;;;26.60;61.40;;;;;;5034570;28;20148;-24
2022/08/07 02:27:47;;;;;;;1.65;0.40;;;26.60;61.40;;;;;;5034299;28;20120;-24
2022/08/07 02:30:13;;;;;;;2.60;0.55;;;26.60;61.40;;;;;;5034676;28;20029;-24
2022/08/07 02:32:40;;;;;;;2.25;0.50;;;26.50;61.20;;;;;;5034489;28;20402;-25
2022/08/07 02:35:07;;;;;;;0.82;0.40;;;26.50;61.20;;;;;;5034482;28;20068;-24
2022/08/07 02:37:35;;;;;;;1.15;0.50;;;26.60;61.30;;;;;;5034039;28;20060;-24
2022/08/07 02:40:04;;;;;;;1.88;0.52;;;26.50;61.20;;;;;;5035071;28;20021;-24
2022/08/07 02:42:31;;;;;;;2.17;0.30;;;26.50;61.20;;;;;;5016470;28;20091;-24
2022/08/07 02:45:00;;;;;;;1.02;0.60;;;26.50;61.20;;;;;;5034467;28;20111;-24
2022/08/07 02:47:26;;;;;;;1.23;0.40;;;26.50;61.20;;;;;;5016296;28;20034;-24
2022/08/07 02:49:52;;;;;;;0.90;0.43;;;26.50;61.20;;;;;;5034289;28;20483;-24
2022/08/07 02:52:26;;;;;;;1.20;0.40;;;26.50;61.30;;;;;;5034432;28;20494;-24
2022/08/07 02:54:53;;;;;;;1.10;0.40;;;26.50;61.30;;;;;;5034076;28;20025;-24
2022/08/07 02:57:22;;;;;;;0.90;0.40;;;26.50;61.30;;;;;;5033764;28;20646;-24
2022/08/07 02:59:50;;;;;;;0.85;0.30;;;26.40;61.20;;;;;;5033740;28;20107;-24
2022/08/07 03:02:17;;;;;;;3.38;0.60;;;26.40;61.20;;;;;;5033911;28;20104;-24
2022/08/07 03:04:45;;;;;;;1.30;0.32;;;26.40;61.20;;;;;;5033789;28;20025;-24
2022/08/07 03:07:11;;;;;;;1.05;0.50;;;26.40;61.20;;;;;;5034023;28;20076;-24
2022/08/07 03:09:38;;;;;;;1.00;0.40;;;26.40;61.30;;;;;;5033739;28;20032;-24
2022/08/07 03:12:05;;;;;;;0.82;0.43;;;26.40;61.20;;;;;;5033652;28;20057;-24
2022/08/07 03:14:35;;;;;;;0.80;0.40;;;26.40;61.20;;;;;;5015854;28;20025;-24
2022/08/07 03:17:01;;;;;;;3.53;0.50;;;26.30;61.20;;;;;;5033349;28;20029;-24
2022/08/07 03:19:27;;;;;;;1.20;0.45;;;26.40;61.20;;;;;;5033610;28;20032;-24
2022/08/07 03:21:54;;;;;;;1.05;0.40;;;26.40;61.20;;;;;;5033414;28;20032;-24
2022/08/07 03:24:20;;;;;;;2.17;0.40;;;26.40;61.20;;;;;;5033721;28;20029;-24
2022/08/07 03:26:51;;;;;;;0.93;0.45;;;26.40;61.30;;;;;;5033440;28;20025;-24
2022/08/07 03:29:17;;;;;;;0.90;0.43;;;26.30;61.20;;;;;;5033628;28;20032;-24
2022/08/07 03:31:45;;;;;;;1.55;0.40;;;26.30;61.20;;;;;;5033440;28;20032;-24
2022/08/07 03:34:13;;;;;;;2.58;0.30;;;26.30;61.10;;;;;;5033927;28;20029;-25
2022/08/07 03:36:39;;;;;;;1.10;0.40;;;26.30;61.20;;;;;;5037552;28;20041;-24
2022/08/07 03:39:10;;;;;;;1.48;0.50;;;26.30;61.20;;;;;;5036989;28;20383;-24
2022/08/07 03:41:36;;;;;;;0.90;0.40;;;26.30;61.20;;;;;;5033765;28;20017;-24
2022/08/07 03:44:03;;;;;;;0.90;0.45;;;26.30;61.20;;;;;;5033542;28;20036;-24
2022/08/07 03:46:30;;;;;;;0.98;0.50;;;26.30;61.20;;;;;;5033335;28;20036;-24
2022/08/07 03:48:56;;;;;;;2.47;0.50;;;26.30;61.20;;;;;;5033567;28;20037;-24
2022/08/07 03:51:23;;;;;;;1.95;0.30;;;26.30;61.20;;;;;;5033985;28;20068;-24
2022/08/07 03:53:49;;;;;;;2.28;0.50;;;26.20;61.10;;;;;;5033145;28;20029;-24
2022/08/07 03:56:19;;;;;;;1.67;0.60;;;26.20;61.10;;;;;;5033315;28;20086;-24
2022/08/07 03:58:45;;;;;;;1.25;0.50;;;26.20;61.10;;;;;;5032728;28;20167;-24
2022/08/07 04:01:12;;;;;;;3.45;0.60;;;26.20;61.10;;;;;;5033285;28;20033;-25
2022/08/07 04:03:38;;;;;;;1.80;0.30;;;26.20;61.20;;;;;;5032769;28;20025;-24
2022/08/07 04:06:08;;;;;;;0.40;0.30;;;26.20;61.20;;;;;;5032792;28;20029;-24
2022/08/07 04:08:35;;;;;;;0.55;0.35;;;26.20;61.20;;;;;;5032742;28;20107;-25
2022/08/07 04:11:01;;;;;;;0.93;0.40;;;26.20;61.20;;;;;;5032318;28;20068;-24
2022/08/07 04:13:27;;;;;;;2.45;0.40;;;26.20;61.20;;;;;;5032930;28;20056;-24
2022/08/07 04:15:53;;;;;;;1.63;0.50;;;26.20;61.20;;;;;;5033015;28;20123;-24
2022/08/07 04:18:19;;;;;;;0.63;0.38;;;26.10;61.20;;;;;;5032462;28;20029;-24
2022/08/07 04:20:45;;;;;;;1.55;0.40;;;26.10;61.20;;;;;;5032552;28;20022;-24
2022/08/07 04:23:12;;;;;;;1.00;0.40;;;26.10;61.20;;;;;;5032495;28;20021;-24
2022/08/07 04:25:40;;;;;;;2.15;0.40;;;26.10;61.20;;;;;;5015369;28;20463;-24
2022/08/07 04:28:06;;;;;;;1.10;0.50;;;26.10;61.20;;;;;;5032477;28;20030;-24
2022/08/07 04:30:34;;;;;;;1.67;0.52;;;26.10;61.30;;;;;;5033049;28;20092;-24
2022/08/07 04:33:04;;;;;;;1.23;0.60;;;26.10;61.30;;;;;;5032688;28;20028;-24
2022/08/07 04:35:30;;;;;;;1.65;0.60;;;26.10;61.30;;;;;;5032817;28;20025;-24
2022/08/07 04:37:55;;;;;;;0.73;0.40;;;26.00;61.20;;;;;;5031974;28;20368;-24
2022/08/07 04:40:21;;;;;;;1.45;0.70;;;26.00;61.30;;;;;;5032157;28;20034;-24
2022/08/07 04:42:47;;;;;;;2.35;0.40;;;26.00;61.30;;;;;;5032680;28;20021;-24
2022/08/07 04:45:13;;;;;;;2.05;0.63;;;26.00;61.40;;;;;;5031836;28;20418;-24
2022/08/07 04:47:56;;;;;;;1.45;0.50;;;26.00;61.40;;;;;;5032070;28;20057;-24
2022/08/07 04:50:31;;;;;;;0.90;0.40;;;26.00;61.30;;;;;;5032883;28;20169;-24
2022/08/07 04:53:03;;;;;;;;;;;25.90;61.40;;;;;;5032639;28;20021;-24
2022/08/07 04:55:45;;;;;;;1.65;0.50;;;26.00;61.40;;;;;;5014523;28;20105;-24
2022/08/07 04:58:25;;;;;;;2.08;0.70;;;26.00;61.30;;;;;;5014145;28;20030;-24
2022/08/07 05:01:09;;;;;;;1.42;0.47;;;26.00;61.40;;;;;;5032186;28;20030;-25
2022/08/07 05:03:45;;;;;;;0.60;0.50;;;25.90;61.40;;;;;;5032384;28;20506;-24
2022/08/07 05:06:17;;;;;;;0.52;0.40;;;25.90;61.50;;;;;;5032082;28;20036;-24
2022/08/07 05:09:04;;;;;;;0.90;0.55;;;25.90;61.60;;;;;;5031800;28;20071;-24
2022/08/07 05:11:31;;;;;;;0.77;0.40;;;25.90;61.40;;;;;;5032048;28;20036;-24
2022/08/07 05:14:05;;;;;;;0.75;0.40;;;25.90;61.60;;;;;;5032071;28;20032;-24
2022/08/07 05:16:33;;;;;;;0.60;0.40;;;25.90;61.70;;;;;;5031614;28;20553;-24
2022/08/07 05:19:03;;;;;;;1.15;0.50;;;25.90;61.60;;;;;;5031627;28;20263;-24
2022/08/07 05:21:30;;;;;;;1.45;0.40;;;25.90;61.70;;;;;;5031892;28;20386;-24
2022/08/07 05:24:03;;;;;;;1.38;0.45;;;25.90;61.80;;;;;;5033463;28;20498;-24
2022/08/07 05:26:31;;;;;;;2.00;0.50;;;25.80;61.70;;;;;;5035632;28;20022;-24
2022/08/07 05:29:00;;;;;;;1.50;0.30;;;25.80;61.70;;;;;;5035273;28;20057;-24
2022/08/07 05:31:32;;;;;;;0.50;0.40;;;25.80;61.80;;;;;;5035757;28;20032;-24
2022/08/07 05:33:59;;;;;;;1.17;0.60;;;25.80;61.80;;;;;;5035906;28;20025;-24
2022/08/07 05:36:27;;;;;;;2.10;0.57;;;25.80;62.60;;;;;;5035400;28;20029;-24
2022/08/07 05:38:54;;;;;;;0.88;0.52;;;25.80;61.80;;;;;;5035426;28;20026;-24
2022/08/07 05:41:21;;;;;;;0.93;0.40;;;25.80;61.90;;;;;;5035486;28;20466;-24
2022/08/07 05:43:50;;;;;;;1.42;0.50;;;25.80;61.80;;;;;;5035589;28;20100;-23
2022/08/07 05:46:18;;;;;;;3.88;0.60;;;25.80;62.00;;;;;;5035749;28;20029;-24
2022/08/07 05:48:44;;;;;;;1.23;0.50;;;25.80;62.10;;;;;;5035202;28;20505;-24
2022/08/07 05:51:11;;;;;;;1.52;0.50;;;25.80;62.00;;;;;;5035353;28;20030;-24
2022/08/07 05:53:37;;;;;;;0.95;0.50;;;25.80;62.10;;;;;;5035296;28;20056;-24
2022/08/07 05:56:05;;;;;;;2.35;0.60;;;25.80;62.20;;;;;;5035022;28;20049;-25
2022/08/07 05:58:31;;;;;;;0.80;0.30;;;25.80;62.30;;;;;;5034738;28;20053;-24
2022/08/07 06:00:59;;;;;;;1.02;0.55;;;25.80;62.20;;;;;;5035183;28;20022;-24
2022/08/07 06:03:27;;;;;;;1.00;0.40;;;25.70;62.20;;;;;;5035083;28;20390;-25
2022/08/07 06:05:53;;;;;;;1.83;0.50;;;25.80;62.40;;;;;;5035062;28;20410;-24
2022/08/07 06:08:20;;;;;;;0.68;0.30;;;25.80;62.30;;;;;;5034701;28;20017;-24
2022/08/07 06:10:46;;;;;;;1.13;0.40;;;25.70;62.30;;;;;;5034825;28;20108;-24
2022/08/07 06:13:12;;;;;;;1.45;0.47;;;25.80;62.40;;;;;;5034833;28;20033;-24
2022/08/07 06:15:39;;;;;;;2.05;0.40;;;25.80;62.50;;;;;;5034805;28;20030;-24
2022/08/07 06:18:05;;;;;;;1.10;0.40;;;25.70;62.30;;;;;;5034627;28;20502;-24
2022/08/07 06:20:36;;;;;;;1.38;0.50;;;25.80;62.50;;;;;;5035132;28;20601;-24
2022/08/07 06:23:04;;;;;;;1.42;0.55;;;25.80;62.60;;;;;;5034720;28;20483;-24
2022/08/07 06:25:30;;;;;;;1.40;0.50;;;25.70;62.50;;;;;;5034606;28;20109;-23
2022/08/07 06:28:08;;;;;;;1.00;0.40;;;25.70;62.70;;;;;;5016611;28;20121;-24
2022/08/07 06:30:35;;;;;;;2.47;0.50;;;25.80;62.70;;;;;;5034556;28;20521;-24
2022/08/07 06:33:02;;;;;;;0.75;0.52;;;25.70;62.70;;;;;;5016858;28;20030;-24
2022/08/07 06:35:28;;;;;;;1.63;0.40;;;25.70;62.60;;;;;;5033921;28;20083;-24
2022/08/07 06:37:55;;;;;;;1.17;0.70;;;25.70;62.90;;;;;;5034142;28;20033;-24
2022/08/07 06:40:20;;;;;;;3.15;0.47;;;25.70;62.90;;;;;;5034423;28;20451;-24
2022/08/07 06:42:47;;;;;;;0.68;0.45;;;25.70;62.90;;;;;;5034270;28;20056;-24
2022/08/07 06:45:19;;;;;;;1.10;0.45;;;25.70;63.00;;;;;;5034208;28;20260;-24
2022/08/07 06:47:46;;;;;;;3.35;0.55;;;25.70;63.10;;;;;;5034033;28;20408;-24
2022/08/07 06:50:12;;;;;;;1.30;0.50;;;25.70;63.20;;;;;;5034197;28;20025;-24
2022/08/07 06:52:42;;;;;;;0.82;0.40;;;25.70;63.20;;;;;;5034214;28;20022;-24
2022/08/07 06:55:13;;;;;;;0.95;0.50;;;25.70;63.40;;;;;;5034072;28;20390;-24
2022/08/07 06:57:40;;;;;;;0.93;0.50;;;25.70;63.60;;;;;;5034033;28;20100;-24
2022/08/07 07:00:06;;;;;;;1.55;0.73;;;25.70;63.70;;;;;;5034003;28;20598;-24
2022/08/07 07:02:35;;;;;;;0.70;0.50;;;25.70;63.80;;;;;;5033971;28;20491;-24
2022/08/07 07:05:01;;;;;;;2.35;0.77;;;25.70;63.90;;;;;;5033820;28;20483;-24
2022/08/07 07:07:27;;;;;;;0.75;0.50;;;25.70;64.00;;;;;;5033728;28;20108;-24
2022/08/07 07:09:52;;;;;;;2.40;0.77;;;25.70;64.20;;;;;;5033945;28;20217;-24
2022/08/07 07:12:24;;;;;;;1.95;0.63;;;25.70;64.30;;;;;;5033786;28;20030;-24
2022/08/07 07:15:03;;;;;;;3.45;1.00;;;25.80;64.50;;;;;;5034531;28;20028;-24
2022/08/07 07:17:58;;;;;;;1.98;0.82;;;25.50;68.60;;;;;;5034345;28;20032;-24
2022/08/07 07:20:30;;;;;;;;;;;25.50;68.30;;;;;;5012334;28;20040;-24
2022/08/07 07:22:57;;;;;;;3.22;0.80;;;25.50;67.90;;;;;;5034428;28;20353;-24
2022/08/07 07:25:23;;;;;;;2.15;0.80;;;25.60;67.80;;;;;;5038833;28;20099;-24
2022/08/07 07:28:01;;;;;;;3.22;0.85;;;25.60;67.50;;;;;;5038108;28;20430;-24
2022/08/07 07:30:35;;;;;;;2.40;0.75;;;25.70;67.50;;;;;;5033827;28;20021;-24
2022/08/07 07:33:02;;;;;;;1.70;1.08;;;25.70;67.40;;;;;;5034170;28;20052;-24
2022/08/07 07:35:30;;;;;;;1.58;0.98;;;25.70;67.30;;;;;;5033414;28;20336;-24
2022/08/07 07:37:57;;;;;;;1.70;0.98;;;25.70;67.20;;;;;;5033488;28;20108;-25
2022/08/07 07:40:23;;;;;;;2.63;1.00;;;25.80;67.20;;;;;;5034044;28;20022;-24
2022/08/07 07:42:52;;;;;;;3.65;1.00;;;25.90;67.20;;;;;;5033830;28;20034;-24
2022/08/07 07:45:22;;;;;;;2.17;0.90;;;25.90;67.10;;;;;;5034245;28;20026;-24
2022/08/07 07:47:51;;;;;;;1.50;0.98;;;26.00;67.10;;;;;;5032624;28;20513;-24
2022/08/07 07:50:19;;;;;;;1.25;0.75;;;25.90;67.00;;;;;;5034074;28;20442;-24
2022/08/07 07:52:45;;;;;;;2.50;0.82;;;26.00;67.10;;;;;;5033318;28;20033;-24
2022/08/07 07:55:13;;;;;;;1.90;0.90;;;26.00;67.00;;;;;;5015833;28;20383;-25
2022/08/07 07:57:41;;;;;;;1.20;0.80;;;26.00;67.00;;;;;;5032921;28;20025;-24
2022/08/07 08:00:08;;;;;;;1.48;1.00;;;26.00;67.10;;;;;;5033153;28;20495;-25
2022/08/07 08:02:36;;;;;;;4.60;0.80;;;26.00;67.10;;;;;;5032828;28;20025;-24
2022/08/07 08:05:05;;;;;;;1.85;0.88;;;26.00;67.10;;;;;;5033022;28;20028;-24
2022/08/07 08:07:32;;;;;;;2.47;0.88;;;26.00;67.10;;;;;;5032692;28;20029;-24
2022/08/07 08:09:59;;;;;;;1.30;0.82;;;26.00;67.10;;;;;;5033338;28;20041;-24
2022/08/07 08:12:25;;;;;;;1.90;0.90;;;26.00;67.20;;;;;;5032645;28;20041;-24
2022/08/07 08:14:51;;;;;;;3.25;0.98;;;26.00;67.10;;;;;;5032679;28;20036;-25
2022/08/07 08:17:19;;;;;;;0.98;0.68;;;26.00;67.10;;;;;;5032486;28;20104;-24
2022/08/07 08:19:46;;;;;;;0.90;0.77;;;26.00;67.10;;;;;;5032542;28;20022;-24
2022/08/07 08:27:46;;;;;;;0.88;0.70;;;26.10;67.10;;;;;;5033602;28;20036;-24
2022/08/07 08:30:12;;;;;;;1.20;0.80;;;26.10;67.10;;;;;;5032415;28;20126;-24
2022/08/07 08:32:43;;;;;;;1.75;0.80;;;26.10;67.00;;;;;;4998515;28;20037;-24
2022/08/07 08:35:19;;;;;;;1.15;0.80;;;26.10;67.80;;;;;;5014942;28;20030;-24
2022/08/07 08:37:46;;;;;;;2.75;0.90;;;26.10;66.90;;;;;;5014462;28;20080;-24
2022/08/07 08:40:23;;;;;;;1.90;0.75;;;26.20;67.70;;;;;;5032474;28;20022;-24
2022/08/07 08:42:55;;;;;;;2.88;0.75;;;26.20;66.90;;;;;;5014896;28;20018;-24
2022/08/07 08:45:32;;;;;;;0.80;0.60;;;26.20;66.90;;;;;;5032204;28;20026;-24
2022/08/07 08:48:29;;;;;;;0.98;0.70;;;26.20;66.90;;;;;;5032226;28;20542;-24
2022/08/07 08:51:03;;;;;;;1.15;0.70;;;26.20;66.80;;;;;;5027311;28;20050;-24
2022/08/07 08:53:56;;;;;;;1.10;0.80;;;26.20;66.70;;;;;;5032207;28;20036;-24
2022/08/07 08:56:35;;;;;;;1.60;0.93;;;26.30;66.80;;;;;;5035085;28;20091;-24
2022/08/07 08:59:39;;;;;;;1.23;0.77;;;26.30;66.80;;;;;;5035274;28;20021;-25
2022/08/07 09:02:23;;;;;;;1.30;0.70;;;26.30;66.80;;;;;;5014455;28;20030;-24
2022/08/07 09:05:11;;;;;;;1.88;0.70;;;26.30;66.70;;;;;;5032708;28;20335;-24
2022/08/07 09:07:49;;;;;;;0.80;0.65;;;26.30;66.80;;;;;;5033741;28;20030;-24
2022/08/07 09:10:26;;;;;;;0.80;0.68;;;26.30;66.80;;;;;;5032211;28;20449;-24
2022/08/07 09:13:36;;;;;;;1.10;0.90;;;26.30;66.80;;;;;;5032094;28;20435;-24
2022/08/07 09:16:07;;;;;;;1.15;0.63;;;26.30;66.80;;;;;;5031966;28;20433;-24
2022/08/07 09:19:01;;;;;;;1.83;0.80;;;26.30;66.80;;;;;;5013766;28;20045;-24
2022/08/07 09:21:30;;;;;;;0.93;0.47;;;26.30;66.80;;;;;;5031848;28;20096;-24
2022/08/07 09:24:04;;;;;;;0.88;0.52;;;26.30;66.80;;;;;;5031816;28;20025;-24
2022/08/07 09:26:47;;;;;;;0.70;0.57;;;26.30;66.70;;;;;;5031532;28;20026;-24
2022/08/07 09:29:32;;;;;;;2.38;0.93;;;26.30;66.80;;;;;;5031669;28;20100;-25
2022/08/07 09:32:35;;;;;;;0.93;0.68;;;26.40;66.90;;;;;;5032063;28;20025;-24
2022/08/07 09:35:31;;;;;;;1.10;0.63;;;26.30;66.70;;;;;;5014042;28;20103;-24
2022/08/07 09:38:07;;;;;;;3.25;0.70;;;26.40;66.90;;;;;;5031295;28;20022;-24
2022/08/07 09:41:23;;;;;;;1.67;0.70;;;26.40;66.80;;;;;;5031711;28;20021;-24
2022/08/07 09:43:52;;;;;;;1.15;0.70;;;26.40;66.90;;;;;;4998291;28;20037;-24
2022/08/07 09:46:35;;;;;;;1.58;0.80;;;26.40;66.90;;;;;;5031370;28;20049;-24
2022/08/07 09:49:14;;;;;;;0.60;0.60;;;26.40;66.90;;;;;;5031562;28;20548;-24
2022/08/07 09:52:02;;;;;;;1.27;0.60;;;26.40;66.90;;;;;;5031782;28;20025;-24
2022/08/07 09:54:58;;;;;;;2.28;0.70;;;26.40;66.90;;;;;;5031592;28;20495;-24
2022/08/07 09:57:33;;;;;;;0.75;0.50;;;26.50;67.00;;;;;;5030077;28;20195;-24
2022/08/07 10:00:12;;;;;;;0.80;0.63;;;26.40;66.90;;;;;;5013693;28;20033;-24
2022/08/07 10:03:12;;;;;;;1.15;0.50;;;26.40;66.90;;;;;;5031623;28;20560;-24
2022/08/07 10:06:08;;;;;;;1.05;0.60;;;26.40;66.90;;;;;;5031495;28;20486;-24
2022/08/07 10:08:45;;;;;;;0.70;0.50;;;26.50;67.10;;;;;;5031291;28;20060;-24
2022/08/07 10:11:48;;;;;;;0.77;0.52;;;26.50;67.00;;;;;;5034897;28;20096;-24
2022/08/07 10:14:30;;;;;;;0.75;0.60;;;26.50;67.00;;;;;;4980966;28;20066;-24
2022/08/07 10:17:24;;;;;;;0.75;0.50;;;26.50;66.90;;;;;;5034570;28;20026;-24
2022/08/07 10:20:02;;;;;;;1.35;0.70;;;26.50;66.90;;;;;;5035017;28;20017;-24
2022/08/07 10:22:34;;;;;;;0.70;0.60;;;26.50;66.80;;;;;;5034851;28;20029;-24
2022/08/07 10:25:24;;;;;;;0.93;0.80;;;26.50;66.70;;;;;;5034770;28;20025;-24
2022/08/07 10:28:08;;;;;;;1.38;0.50;;;26.50;66.70;;;;;;5034846;28;20052;-24
2022/08/07 10:30:48;;;;;;;0.68;0.50;;;26.50;66.70;;;;;;5035033;28;20391;-24
2022/08/07 10:33:51;;;;;;;1.35;0.60;;;26.60;66.70;;;;;;5034895;28;20117;-24
2022/08/07 10:36:23;;;;;;;0.90;0.50;;;26.60;66.60;;;;;;5016602;28;20441;-24
2022/08/07 10:38:57;;;;;;;0.85;0.57;;;26.60;66.50;;;;;;5034639;28;20045;-24
2022/08/07 10:41:35;;;;;;;;;;;26.60;66.40;;;;;;5034779;28;20118;-24
2022/08/07 10:44:07;;;;;;;0.73;0.60;;;26.60;66.40;;;;;;5016573;28;20277;-24
2022/08/07 10:46:49;;;;;;;1.02;0.63;;;26.60;66.40;;;;;;5034166;28;20104;-24
2022/08/07 10:49:42;;;;;;;0.47;0.40;;;26.60;66.40;;;;;;5034302;28;20391;-24
2022/08/07 10:52:13;;;;;;;0.95;0.50;;;26.60;66.40;;;;;;5003356;28;20034;-24
2022/08/07 10:54:56;;;;;;;0.68;0.40;;;26.60;66.40;;;;;;5034662;28;20017;-24
2022/08/07 10:57:31;;;;;;;1.33;0.55;;;26.70;66.60;;;;;;5034017;28;20029;-24
2022/08/07 11:00:10;;;;;;;0.60;0.40;;;26.60;66.50;;;;;;5034283;28;20021;-24
2022/08/07 11:02:40;;;;;;;0.75;0.55;;;26.60;66.50;;;;;;5034631;28;20033;-24
2022/08/07 11:05:39;;;;;;;0.90;0.50;;;26.60;66.50;;;;;;5034068;28;20083;-24
2022/08/07 11:08:23;;;;;;;0.88;0.60;;;26.70;66.60;;;;;;5039250;28;20025;-23
2022/08/07 11:11:01;;;;;;;1.05;0.63;;;26.70;66.60;;;;;;5038939;28;20044;-23
2022/08/07 11:13:58;;;;;;;1.13;0.50;;;26.70;66.60;;;;;;5034221;28;20021;-24
2022/08/07 11:16:36;;;;;;;0.70;0.50;;;26.70;66.60;;;;;;5021540;28;20072;-24
2022/08/07 11:19:10;;;;;;;0.93;0.52;;;26.80;66.60;;;;;;5034555;28;20071;-25
2022/08/07 11:21:41;;;;;;;0.50;0.50;;;26.70;66.50;;;;;;5033632;28;20096;-24
2022/08/07 11:24:06;;;;;;;0.80;0.60;;;26.80;66.50;;;;;;5034061;28;20468;-24
2022/08/07 11:26:45;;;;;;;0.70;0.40;;;26.80;66.40;;;;;;5033719;28;20528;-23
2022/08/07 11:29:18;;;;;;;0.60;0.40;;;26.80;66.40;;;;;;5033826;28;20539;-24
2022/08/07 11:31:50;;;;;;;0.50;0.40;;;26.80;66.30;;;;;;5033998;28;20030;-24
2022/08/07 11:34:35;;;;;;;0.95;0.65;;;26.80;66.20;;;;;;5033673;28;20467;-24
2022/08/07 11:37:11;;;;;;;0.80;0.50;;;26.80;66.10;;;;;;5033288;28;20029;-24
2022/08/07 11:39:49;;;;;;;0.45;0.40;;;26.80;66.20;;;;;;5033918;28;20021;-23
2022/08/07 11:42:32;;;;;;;0.63;0.40;;;26.80;66.10;;;;;;5033518;28;20483;-24
2022/08/07 11:45:09;;;;;;;2.15;0.60;;;26.90;66.20;;;;;;5033510;28;20022;-24
2022/08/07 11:48:27;;;;;;;0.70;0.60;;;26.90;66.20;;;;;;5033752;28;20061;-24
2022/08/07 11:51:20;;;;;;;0.85;0.60;;;26.90;66.00;;;;;;4979126;28;20046;-24
2022/08/07 11:53:52;;;;;;;0.55;0.47;;;26.90;66.00;;;;;;5033442;28;20217;-23
2022/08/07 11:56:53;;;;;;;0.47;0.40;;;27.00;66.00;;;;;;5033082;28;20030;-23
2022/08/07 11:59:31;;;;;;;0.40;0.40;;;27.00;66.00;;;;;;5023375;28;20442;-24
2022/08/07 12:02:06;;;;;;;0.90;0.45;;;26.90;65.90;;;;;;5033447;28;20104;-23
2022/08/07 12:04:50;;;;;;;0.68;0.50;;;26.90;65.90;;;;;;5032969;28;20096;-24
2022/08/07 12:07:28;;;;;;;;;;;27.00;65.90;;;;;;5033200;28;20025;-24
2022/08/07 12:10:02;;;;;;;0.70;0.38;;;27.00;66.00;;;;;;5032715;28;19909;-24
2022/08/07 12:12:42;;;;;;;0.75;0.40;;;27.00;66.00;;;;;;5032755;28;20030;-24
2022/08/07 12:15:20;;;;;;;0.57;0.40;;;27.00;66.00;;;;;;5032726;28;20033;-24
2022/08/07 12:17:59;;;;;;;1.60;0.70;;;27.00;66.10;;;;;;5032259;28;20036;-23
2022/08/07 12:20:41;;;;;;;0.57;0.50;;;26.90;66.00;;;;;;5032986;28;20021;-24
2022/08/07 12:23:35;;;;;;;0.70;0.38;;;27.00;66.00;;;;;;5014832;28;20044;-24
2022/08/07 12:26:08;;;;;;;1.00;0.50;;;27.00;66.00;;;;;;5032369;28;20029;-24
2022/08/07 12:28:56;;;;;;;0.93;0.50;;;27.00;66.00;;;;;;5032259;28;20029;-24
2022/08/07 12:32:06;;;;;;;0.50;0.30;;;27.10;66.00;;;;;;5032590;28;20018;-24
2022/08/07 12:34:35;;;;;;;0.55;0.30;;;27.10;66.00;;;;;;5025873;28;20618;-24
2022/08/07 12:37:02;;;;;;;1.30;0.40;;;27.10;66.00;;;;;;5032082;28;20026;-24
2022/08/07 12:39:31;;;;;;;0.70;0.40;;;27.10;66.00;;;;;;5032320;28;20037;-24
2022/08/07 12:41:58;;;;;;;0.63;0.40;;;27.10;66.00;;;;;;5032405;28;20021;-24
2022/08/07 12:44:26;;;;;;;1.05;0.50;;;27.10;66.00;;;;;;5032008;28;20104;-24
2022/08/07 12:47:18;;;;;;;0.80;0.40;;;27.10;66.00;;;;;;5032245;28;20036;-24
2022/08/07 12:49:50;;;;;;;0.60;0.45;;;27.10;66.00;;;;;;5029457;28;20335;-23
2022/08/07 12:52:33;;;;;;;0.50;0.40;;;27.10;66.00;;;;;;5032121;28;20034;-24
2022/08/07 12:55:23;;;;;;;0.75;0.40;;;27.10;66.00;;;;;;5032079;28;20072;-23
2022/08/07 12:57:52;;;;;;;0.63;0.40;;;27.10;66.00;;;;;;5031913;28;20032;-23
2022/08/07 13:00:20;;;;;;;0.55;0.50;;;27.10;66.00;;;;;;5031994;28;20017;-24
2022/08/07 13:03:09;;;;;;;0.70;0.40;;;27.10;66.00;;;;;;5031994;28;20017;-24
2022/08/07 13:06:02;;;;;;;1.00;0.50;;;27.10;66.00;;;;;;5032007;28;20033;-24
2022/08/07 13:09:05;;;;;;;0.63;0.40;;;27.10;66.00;;;;;;5014084;28;20503;-24
2022/08/07 13:11:46;;;;;;;0.60;0.47;;;27.10;66.00;;;;;;5032473;28;20021;-24
2022/08/07 13:14:26;;;;;;;0.93;0.50;;;27.10;66.00;;;;;;5031891;28;20026;-23
2022/08/07 13:17:29;;;;;;;1.02;0.55;;;27.10;66.10;;;;;;5031508;28;20022;-24
2022/08/07 13:20:10;;;;;;;1.25;0.40;;;27.10;66.10;;;;;;5015950;28;20028;-23
2022/08/07 13:23:05;;;;;;;1.10;0.50;;;27.10;66.10;;;;;;5033828;28;20087;-24